Time;durP1;ratioP1;P1;durP2;ratioP2;P2;SDS_P1;SDS_P2;PMS_P1;PMS_P2;Temp;Humidity;BMP_temperature;BMP_pressure;BME280_temperature;BME280_humidity;BME280_pressure;Samples;Min_cycle;Max_cycle;Signal;HPM_P1;HPM_P2
2024/04/04 00:01:57;;;;;;;17.15;2.70;;;10.80;99.90;;;;;;4960145;29;20043;-88
2024/04/04 00:04:22;;;;;;;13.43;3.53;;;10.80;99.90;;;;;;4956338;29;20046;-88
2024/04/04 00:06:48;;;;;;;14.02;2.70;;;10.70;99.90;;;;;;4955265;29;20030;-88
2024/04/04 00:09:14;;;;;;;11.65;2.25;;;10.70;99.90;;;;;;4956808;29;20054;-88
2024/04/04 00:11:40;;;;;;;13.02;2.60;;;10.70;99.90;;;;;;4956501;29;20361;-89
2024/04/04 00:14:06;;;;;;;19.02;2.92;;;10.60;99.90;;;;;;4955747;29;20090;-89
2024/04/04 00:16:35;;;;;;;9.57;2.65;;;10.70;99.90;;;;;;4956953;29;20045;-89
2024/04/04 00:19:01;;;;;;;12.02;2.03;;;10.60;99.90;;;;;;4955918;29;20035;-89
2024/04/04 00:21:27;;;;;;;11.80;2.10;;;10.60;99.90;;;;;;4956041;29;20106;-89
2024/04/04 00:23:52;;;;;;;12.77;2.13;;;10.60;99.90;;;;;;4952823;29;20027;-87
2024/04/04 00:26:20;;;;;;;16.70;2.38;;;10.60;99.90;;;;;;4941790;29;20479;-89
2024/04/04 00:28:46;;;;;;;12.40;2.53;;;10.60;99.90;;;;;;4956134;29;20027;-90
2024/04/04 00:31:11;;;;;;;12.00;2.17;;;10.50;99.90;;;;;;4956340;29;20486;-89
2024/04/04 00:33:37;;;;;;;11.80;2.83;;;10.60;99.90;;;;;;4956184;29;20027;-89
2024/04/04 00:36:03;;;;;;;9.15;2.45;;;10.50;99.90;;;;;;4955717;29;20499;-88
2024/04/04 00:38:28;;;;;;;11.60;2.00;;;10.60;99.90;;;;;;4956162;29;20031;-88
2024/04/04 00:40:54;;;;;;;11.85;1.80;;;10.90;99.90;;;;;;4954385;28;20351;-88
2024/04/04 00:43:19;;;;;;;10.60;1.95;;;10.60;99.90;;;;;;4955224;29;20019;-90
2024/04/04 00:45:46;;;;;;;8.38;2.38;;;10.60;99.90;;;;;;4939763;29;20043;-90
2024/04/04 00:48:11;;;;;;;9.35;2.25;;;10.70;99.90;;;;;;4958161;29;20029;-88
2024/04/04 00:50:39;;;;;;;7.60;1.85;;;10.70;99.90;;;;;;4973828;29;20051;-87
2024/04/04 00:53:04;;;;;;;9.52;2.00;;;10.70;99.90;;;;;;4961450;29;20023;-88
2024/04/04 00:55:30;;;;;;;8.43;1.65;;;10.60;99.90;;;;;;4961229;29;20027;-91
2024/04/04 00:57:59;;;;;;;12.23;2.88;;;10.60;99.90;;;;;;4977048;28;20133;-90
2024/04/04 01:00:24;;;;;;;6.93;2.05;;;10.50;99.90;;;;;;4975810;28;20039;-91
2024/04/04 01:02:51;;;;;;;11.60;2.20;;;10.50;99.90;;;;;;4975208;28;20019;-90
2024/04/04 01:05:17;;;;;;;9.15;1.70;;;10.50;99.90;;;;;;4973913;28;20030;-88
2024/04/04 01:07:45;;;;;;;11.77;1.90;;;10.80;99.90;;;;;;4973943;28;20033;-90
2024/04/04 01:10:10;;;;;;;12.60;2.30;;;10.40;99.90;;;;;;4971905;28;20058;-89
2024/04/04 01:12:38;;;;;;;9.43;2.85;;;10.50;99.90;;;;;;4974953;28;20046;-90
2024/04/04 01:15:04;;;;;;;14.98;2.33;;;10.70;99.90;;;;;;4974869;28;20552;-90
2024/04/04 01:17:30;;;;;;;16.33;1.90;;;10.50;99.90;;;;;;4975332;28;20041;-91
2024/04/04 01:19:56;;;;;;;7.78;1.88;;;10.50;99.90;;;;;;4974804;28;20034;-89
2024/04/04 01:22:21;;;;;;;9.55;2.10;;;10.50;99.90;;;;;;4976016;28;20027;-90
2024/04/04 01:24:47;;;;;;;14.02;1.83;;;10.60;99.90;;;;;;4975485;28;20047;-89
2024/04/04 01:27:12;;;;;;;14.02;2.53;;;10.70;99.90;;;;;;4973073;28;20042;-92
2024/04/04 01:29:38;;;;;;;12.60;2.28;;;10.60;99.90;;;;;;4975554;28;20066;-90
2024/04/04 01:32:04;;;;;;;11.05;1.80;;;10.70;99.90;;;;;;4975923;28;20515;-92
2024/04/04 01:34:29;;;;;;;14.23;2.13;;;10.70;99.90;;;;;;4975369;28;20107;-91
2024/04/04 01:36:55;;;;;;;10.77;1.90;;;10.70;99.90;;;;;;4974758;28;20031;-91
2024/04/04 01:39:21;;;;;;;9.73;2.08;;;10.80;99.90;;;;;;4974644;28;20038;-90
2024/04/04 01:41:46;;;;;;;8.57;2.38;;;10.80;99.90;;;;;;4974561;28;20051;-91
2024/04/04 01:44:13;;;;;;;12.40;2.42;;;10.80;99.90;;;;;;4974977;28;20026;-91
2024/04/04 01:46:42;;;;;;;12.77;1.73;;;10.90;99.90;;;;;;4975360;28;20073;-91
2024/04/04 01:49:07;;;;;;;11.23;2.30;;;11.30;99.90;;;;;;4974243;28;20027;-91
2024/04/04 01:51:36;;;;;;;6.78;2.10;;;10.80;99.90;;;;;;4982887;28;20117;-91
2024/04/04 01:54:02;;;;;;;13.98;2.47;;;10.60;99.90;;;;;;4973729;28;20078;-89
2024/04/04 01:56:27;;;;;;;6.63;2.28;;;10.90;99.90;;;;;;4975058;28;20042;-89
2024/04/04 01:59:02;;;;;;;9.27;2.55;;;11.40;99.90;;;;;;4974776;28;20031;-89
2024/04/04 02:01:28;;;;;;;8.65;1.65;;;11.20;99.90;;;;;;4974507;28;20031;-90
2024/04/04 02:03:53;;;;;;;11.20;2.25;;;12.00;99.90;;;;;;4974076;28;20530;-90
2024/04/04 02:06:19;;;;;;;10.55;2.15;;;10.90;99.90;;;;;;4974376;28;20047;-90
2024/04/04 02:08:44;;;;;;;6.53;2.85;;;11.40;99.90;;;;;;4982664;28;20026;-90
2024/04/04 02:11:10;;;;;;;8.77;2.22;;;11.50;99.90;;;;;;4984676;28;20091;-90
2024/04/04 02:13:35;;;;;;;11.00;2.10;;;10.90;99.90;;;;;;4962212;28;20027;-88
2024/04/04 02:16:02;;;;;;;10.90;2.42;;;10.90;99.90;;;;;;4974830;28;20050;-89
2024/04/04 02:18:27;;;;;;;9.57;2.22;;;10.90;99.90;;;;;;4974802;28;20027;-88
2024/04/04 02:20:53;;;;;;;14.60;2.65;;;10.90;99.90;;;;;;4973064;28;20043;-92
2024/04/04 02:23:19;;;;;;;13.52;2.95;;;11.30;99.90;;;;;;4965046;28;20050;-92
2024/04/04 02:25:44;;;;;;;16.35;3.83;;;11.10;99.90;;;;;;4955358;29;20507;-90
2024/04/04 02:28:10;;;;;;;5.20;1.90;;;11.60;99.90;;;;;;4955062;29;20082;-89
2024/04/04 02:30:37;;;;;;;9.30;2.05;;;11.90;99.90;;;;;;4955051;29;20482;-90
2024/04/04 02:33:21;;;;;;;4.45;1.60;;;10.90;99.90;;;;;;4967933;28;20438;-90
2024/04/04 02:36:03;;;;;;;8.25;2.35;;;10.90;99.90;;;;;;4973774;28;20054;-90
2024/04/04 02:38:29;;;;;;;7.28;2.08;;;10.90;99.90;;;;;;4974518;28;20054;-91
2024/04/04 02:40:54;;;;;;;7.93;2.10;;;10.90;99.90;;;;;;4974380;28;20117;-90
2024/04/04 02:43:21;;;;;;;8.38;2.72;;;10.80;99.90;;;;;;4973778;28;20094;-90
2024/04/04 02:45:46;;;;;;;9.85;2.15;;;10.80;99.90;;;;;;4984115;28;20023;-90
2024/04/04 02:48:12;;;;;;;7.70;2.50;;;10.80;99.90;;;;;;4974714;28;20078;-91
2024/04/04 02:50:38;;;;;;;8.10;2.15;;;10.80;99.90;;;;;;4974340;28;20030;-90
2024/04/04 02:53:04;;;;;;;9.50;2.40;;;11.60;99.90;;;;;;4973977;28;20029;-91
2024/04/04 02:55:31;;;;;;;12.50;2.67;;;10.70;99.90;;;;;;4963924;28;20035;-90
2024/04/04 02:57:57;;;;;;;11.68;2.13;;;10.70;99.90;;;;;;4972699;28;20058;-92
2024/04/04 03:00:23;;;;;;;6.90;1.92;;;10.70;99.90;;;;;;4974129;28;20046;-91
2024/04/04 03:02:48;;;;;;;12.80;2.95;;;10.70;99.90;;;;;;4973819;28;20027;-91
2024/04/04 03:05:14;;;;;;;14.00;2.13;;;10.70;99.90;;;;;;4974853;28;20323;-90
2024/04/04 03:07:39;;;;;;;7.85;2.92;;;10.70;99.90;;;;;;4977153;28;20026;-91
2024/04/04 03:10:06;;;;;;;12.07;1.98;;;10.70;99.90;;;;;;4977438;28;20063;-91
2024/04/04 03:12:31;;;;;;;10.80;2.03;;;10.70;99.90;;;;;;4977617;28;20031;-90
2024/04/04 03:14:57;;;;;;;8.68;1.90;;;10.70;99.90;;;;;;4977149;28;20088;-91
2024/04/04 03:17:22;;;;;;;6.57;1.85;;;10.70;99.90;;;;;;4976616;28;20027;-89
2024/04/04 03:19:48;;;;;;;8.77;2.20;;;10.70;99.90;;;;;;4976837;28;20348;-89
2024/04/04 03:22:14;;;;;;;9.93;2.75;;;10.60;99.90;;;;;;4976364;28;20426;-89
2024/04/04 03:24:40;;;;;;;4.75;1.60;;;10.60;99.90;;;;;;4976695;28;20022;-90
2024/04/04 03:27:06;;;;;;;4.53;2.25;;;10.80;99.90;;;;;;4976948;28;20034;-88
2024/04/04 03:29:31;;;;;;;6.07;1.70;;;11.10;99.90;;;;;;4993279;28;20034;-90
2024/04/04 03:31:57;;;;;;;6.47;2.10;;;10.80;99.90;;;;;;4987713;28;20033;-90
2024/04/04 03:34:22;;;;;;;7.55;2.45;;;10.70;99.90;;;;;;4977244;28;20038;-88
2024/04/04 03:36:48;;;;;;;11.20;2.22;;;10.70;99.90;;;;;;4975958;28;20054;-89
2024/04/04 03:39:14;;;;;;;8.30;2.72;;;10.70;99.90;;;;;;4979390;28;20049;-89
2024/04/04 03:41:42;;;;;;;8.18;2.10;;;10.70;99.90;;;;;;4979892;28;20042;-89
2024/04/04 03:44:14;;;;;;;3.83;1.75;;;10.90;99.90;;;;;;4977069;28;20034;-89
2024/04/04 03:46:39;;;;;;;6.60;2.65;;;10.70;99.90;;;;;;4976611;28;20095;-91
2024/04/04 03:49:05;;;;;;;7.93;3.05;;;11.50;99.90;;;;;;4976584;28;20058;-88
2024/04/04 03:51:30;;;;;;;5.28;2.55;;;10.80;99.90;;;;;;4976569;28;20029;-89
2024/04/04 03:53:56;;;;;;;11.05;3.08;;;10.80;99.90;;;;;;4976111;28;20035;-89
2024/04/04 03:56:21;;;;;;;6.43;2.60;;;11.60;99.90;;;;;;4975909;28;20035;-90
2024/04/04 03:58:47;;;;;;;7.18;2.88;;;10.80;99.90;;;;;;4974542;28;20037;-90
2024/04/04 04:01:12;;;;;;;5.35;3.03;;;10.90;99.90;;;;;;4975467;28;20043;-90
2024/04/04 04:03:38;;;;;;;7.40;3.00;;;10.90;99.90;;;;;;4976050;28;20505;-90
2024/04/04 04:06:04;;;;;;;5.93;2.97;;;10.80;99.90;;;;;;4976562;28;20350;-89
2024/04/04 04:08:29;;;;;;;8.55;3.42;;;10.80;99.90;;;;;;4976421;28;20078;-90
2024/04/04 04:10:55;;;;;;;4.68;3.53;;;10.90;99.90;;;;;;4976091;28;20035;-89
2024/04/04 04:13:20;;;;;;;5.47;3.78;;;10.90;99.90;;;;;;4975934;28;20034;-90
2024/04/04 04:15:56;;;;;;;4.70;3.78;;;10.90;99.90;;;;;;4976321;28;20026;-89
2024/04/04 04:18:21;;;;;;;6.95;4.50;;;10.90;99.90;;;;;;4975961;28;20027;-90
2024/04/04 04:21:20;;;;;;;6.78;4.85;;;10.90;99.90;;;;;;4974637;28;20050;-90
2024/04/04 04:23:50;;;;;;;5.72;5.20;;;11.00;99.90;;;;;;4975633;28;20493;-90
2024/04/04 04:26:16;;;;;;;5.60;4.95;;;11.00;99.90;;;;;;4975658;28;20549;-90
2024/04/04 04:28:42;;;;;;;5.32;4.45;;;10.90;99.90;;;;;;4975419;28;20030;-90
2024/04/04 04:31:28;;;;;;;7.00;4.70;;;10.90;99.90;;;;;;4975499;28;20396;-88
2024/04/04 04:33:55;;;;;;;6.22;4.55;;;10.90;99.90;;;;;;4981201;28;20030;-90
2024/04/04 04:36:44;;;;;;;5.22;4.72;;;10.90;99.90;;;;;;4977734;28;20031;-89
2024/04/04 04:39:10;;;;;;;4.90;4.45;;;10.90;99.90;;;;;;4975379;28;20118;-89
2024/04/04 04:41:36;;;;;;;4.32;3.92;;;11.00;99.90;;;;;;4973942;28;20101;-88
2024/04/04 04:44:01;;;;;;;4.72;4.32;;;11.00;99.90;;;;;;4970970;28;20124;-89
2024/04/04 04:46:27;;;;;;;6.50;4.35;;;11.70;99.90;;;;;;4975264;28;20093;-90
2024/04/04 04:48:52;;;;;;;3.88;3.58;;;11.10;99.90;;;;;;4987418;28;20022;-90
2024/04/04 04:51:18;;;;;;;4.00;3.65;;;11.10;99.90;;;;;;4991569;28;20113;-90
2024/04/04 04:53:43;;;;;;;3.92;3.63;;;11.10;99.90;;;;;;4975752;28;20420;-90
2024/04/04 04:56:10;;;;;;;7.45;3.63;;;11.00;99.90;;;;;;4976776;28;20062;-90
2024/04/04 04:58:36;;;;;;;5.57;4.30;;;11.10;99.90;;;;;;4975464;28;20022;-90
2024/04/04 05:01:03;;;;;;;4.43;4.13;;;11.10;99.90;;;;;;4975479;28;20537;-90
2024/04/04 05:03:29;;;;;;;5.68;4.50;;;11.00;99.90;;;;;;4954512;28;20082;-89
2024/04/04 05:05:55;;;;;;;4.65;4.10;;;11.00;99.90;;;;;;4955554;29;20085;-90
2024/04/04 05:08:21;;;;;;;4.82;4.32;;;11.00;99.90;;;;;;4955754;28;20118;-89
2024/04/04 05:10:47;;;;;;;5.10;4.57;;;11.00;99.90;;;;;;4955999;29;20032;-90
2024/04/04 05:13:13;;;;;;;5.03;4.10;;;11.00;99.90;;;;;;4955677;28;20171;-90
2024/04/04 05:16:07;;;;;;;4.60;3.75;;;11.00;99.90;;;;;;4955561;29;20054;-89
2024/04/04 05:18:33;;;;;;;6.10;3.63;;;11.00;99.90;;;;;;4947175;28;20749;-90
2024/04/04 05:21:04;;;;;;;4.93;3.70;;;11.00;99.90;;;;;;4955924;28;20050;-89
2024/04/04 05:23:30;;;;;;;6.78;4.03;;;11.10;99.90;;;;;;4954523;28;20456;-90
2024/04/04 05:25:55;;;;;;;4.15;2.90;;;11.10;99.90;;;;;;4955106;28;20070;-89
2024/04/04 05:28:26;;;;;;;7.00;3.55;;;11.10;99.90;;;;;;4957043;28;20038;-91
2024/04/04 05:30:55;;;;;;;5.35;3.30;;;11.10;99.90;;;;;;4955202;29;20156;-90
2024/04/04 05:33:21;;;;;;;6.28;3.72;;;11.10;99.90;;;;;;4955662;29;20471;-90
2024/04/04 05:35:46;;;;;;;3.67;3.08;;;11.20;99.90;;;;;;4955516;28;20024;-89
2024/04/04 05:38:13;;;;;;;3.80;2.75;;;11.20;99.90;;;;;;4955161;29;20082;-90
2024/04/04 05:40:38;;;;;;;3.92;2.90;;;11.30;99.90;;;;;;4955529;28;20034;-90
2024/04/04 05:43:04;;;;;;;3.25;2.72;;;11.30;99.90;;;;;;4954215;28;20045;-91
2024/04/04 05:45:29;;;;;;;4.90;2.97;;;11.30;99.90;;;;;;4954689;28;20043;-90
2024/04/04 05:47:55;;;;;;;5.85;3.47;;;11.30;99.90;;;;;;4955940;29;20023;-90
2024/04/04 05:50:20;;;;;;;5.13;2.67;;;11.40;99.90;;;;;;4954838;28;20047;-89
2024/04/04 05:52:46;;;;;;;5.00;2.80;;;11.30;99.90;;;;;;4954013;29;20049;-90
2024/04/04 05:55:12;;;;;;;5.22;3.03;;;11.40;99.90;;;;;;4954339;29;20113;-90
2024/04/04 05:57:37;;;;;;;3.50;2.72;;;11.40;99.90;;;;;;4961951;28;20054;-90
2024/04/04 06:00:04;;;;;;;4.95;2.72;;;11.50;99.90;;;;;;4973595;28;20039;-90
2024/04/04 06:02:29;;;;;;;9.00;3.05;;;11.50;99.90;;;;;;4972975;28;20438;-89
2024/04/04 06:04:55;;;;;;;5.35;2.28;;;11.50;99.90;;;;;;4973844;28;20030;-89
2024/04/04 06:07:21;;;;;;;3.08;2.00;;;11.70;99.90;;;;;;4973346;28;20400;-91
2024/04/04 06:09:46;;;;;;;3.33;1.70;;;12.10;99.90;;;;;;4982738;28;20027;-88
2024/04/04 06:12:12;;;;;;;10.32;2.30;;;11.50;99.90;;;;;;4979649;28;20232;-90
2024/04/04 06:14:40;;;;;;;3.70;1.98;;;11.50;99.90;;;;;;4973482;28;20031;-91
2024/04/04 06:17:06;;;;;;;3.60;2.20;;;11.60;99.90;;;;;;4974054;28;20023;-89
2024/04/04 06:19:32;;;;;;;2.40;2.10;;;11.60;99.90;;;;;;4963204;28;20043;-91
2024/04/04 06:21:57;;;;;;;5.55;2.45;;;11.60;99.90;;;;;;4980840;28;20038;-89
2024/04/04 06:24:23;;;;;;;8.63;3.13;;;11.60;99.90;;;;;;4974828;28;20035;-90
2024/04/04 06:26:51;;;;;;;9.00;2.65;;;11.70;99.90;;;;;;4973690;28;20031;-90
2024/04/04 06:29:19;;;;;;;5.53;3.00;;;11.70;99.90;;;;;;4973289;28;20027;-91
2024/04/04 06:31:45;;;;;;;9.68;2.97;;;11.70;99.90;;;;;;4962470;28;20050;-90
2024/04/04 06:34:11;;;;;;;7.28;3.35;;;11.60;99.90;;;;;;4955034;29;20019;-90
2024/04/04 06:36:36;;;;;;;8.65;3.25;;;11.60;99.90;;;;;;4955133;29;20054;-90
2024/04/04 06:39:03;;;;;;;5.70;3.08;;;11.70;99.90;;;;;;4955182;28;20027;-90
2024/04/04 06:41:29;;;;;;;6.72;3.58;;;11.70;99.90;;;;;;4974358;28;20031;-91
2024/04/04 06:43:55;;;;;;;8.25;3.33;;;11.70;99.90;;;;;;4977118;28;20019;-91
2024/04/04 06:46:21;;;;;;;10.30;3.63;;;11.70;99.90;;;;;;4977331;28;20027;-90
2024/04/04 06:48:46;;;;;;;10.68;2.97;;;11.70;99.90;;;;;;4962995;28;20023;-91
2024/04/04 06:51:12;;;;;;;6.35;3.00;;;11.80;99.90;;;;;;4974273;28;20078;-89
2024/04/04 06:53:39;;;;;;;6.95;2.67;;;11.80;99.90;;;;;;4971215;28;20078;-90
2024/04/04 06:56:05;;;;;;;10.68;3.40;;;11.90;99.90;;;;;;4960226;28;20039;-89
2024/04/04 06:58:31;;;;;;;9.07;3.20;;;11.90;99.90;;;;;;4970702;28;20034;-93
2024/04/04 07:01:00;;;;;;;8.93;2.90;;;11.90;99.90;;;;;;4977052;28;20490;-91
2024/04/04 07:03:26;;;;;;;5.35;2.42;;;11.90;99.90;;;;;;4976490;28;20034;-93
2024/04/04 07:05:52;;;;;;;7.82;2.72;;;11.90;99.90;;;;;;4972090;28;20779;-91
2024/04/04 07:08:21;;;;;;;7.05;3.25;;;11.90;99.90;;;;;;4975037;28;20026;-93
2024/04/04 07:10:46;;;;;;;5.80;2.63;;;11.90;99.90;;;;;;4977176;28;20070;-92
2024/04/04 07:13:14;;;;;;;7.43;3.20;;;12.00;99.90;;;;;;4977734;28;20391;-93
2024/04/04 07:15:40;;;;;;;11.35;3.25;;;11.90;99.90;;;;;;4984905;28;20019;-91
2024/04/04 07:18:11;;;;;;;8.98;3.78;;;12.00;99.90;;;;;;4985042;28;20173;-93
2024/04/04 07:20:37;;;;;;;6.97;2.90;;;12.00;99.90;;;;;;4977391;28;20483;-91
2024/04/04 07:23:03;;;;;;;7.60;3.72;;;12.00;99.90;;;;;;4960086;28;20023;-94
2024/04/04 07:25:29;;;;;;;6.32;2.78;;;12.00;99.90;;;;;;4971285;28;20487;-94
2024/04/04 07:27:55;;;;;;;7.30;2.95;;;12.60;99.90;;;;;;4974290;28;20011;-94
2024/04/04 07:30:20;;;;;;;9.43;3.38;;;12.20;99.90;;;;;;4980878;28;20075;-90
2024/04/04 07:32:46;;;;;;;8.85;3.17;;;12.00;99.90;;;;;;4986036;28;20027;-94
2024/04/04 07:35:11;;;;;;;6.90;2.90;;;12.10;99.90;;;;;;4985713;28;20034;-92
2024/04/04 07:37:37;;;;;;;9.20;2.70;;;12.10;99.90;;;;;;4985302;28;20030;-95
2024/04/04 07:40:04;;;;;;;6.05;3.22;;;12.10;99.90;;;;;;4987987;28;20027;-95
2024/04/04 07:42:29;;;;;;;6.10;2.47;;;12.10;99.90;;;;;;4978267;28;20454;-89
2024/04/04 07:44:55;;;;;;;11.32;2.33;;;12.10;99.90;;;;;;4977851;28;20033;-94
2024/04/04 07:47:21;;;;;;;8.43;2.38;;;12.10;99.90;;;;;;4978493;28;20383;-93
2024/04/04 07:50:29;;;;;;;4.82;2.22;;;12.10;99.90;;;;;;4978248;28;20030;-92
2024/04/04 07:53:08;;;;;;;7.53;2.83;;;11.60;99.90;;;;;;4978091;28;20023;-89
2024/04/04 07:55:36;;;;;;;4.88;2.10;;;12.90;99.90;;;;;;4974700;28;20042;-93
2024/04/04 07:58:02;;;;;;;9.55;2.88;;;12.00;99.90;;;;;;4942047;29;20067;-94
2024/04/04 08:00:36;;;;;;;5.03;1.95;;;12.10;99.90;;;;;;4955358;29;20102;-90
2024/04/04 08:03:01;;;;;;;7.75;2.80;;;12.80;99.90;;;;;;4955835;29;20361;-88
2024/04/04 08:05:31;;;;;;;6.72;2.05;;;11.70;99.90;;;;;;4955653;29;20030;-89
2024/04/04 08:07:57;;;;;;;6.25;2.20;;;12.60;99.90;;;;;;4958784;28;20031;-90
2024/04/04 08:10:22;;;;;;;6.40;2.65;;;12.80;99.90;;;;;;4993270;28;20131;-90
2024/04/04 08:12:48;;;;;;;9.80;2.28;;;12.20;99.90;;;;;;4978509;28;20049;-90
2024/04/04 08:15:14;;;;;;;13.32;2.72;;;12.20;99.90;;;;;;4975903;28;20062;-92
2024/04/04 08:17:40;;;;;;;7.32;2.28;;;12.20;99.90;;;;;;4976056;28;20050;-90
2024/04/04 08:20:15;;;;;;;7.80;2.33;;;12.20;99.90;;;;;;4996013;23;20058;-91
2024/04/04 08:22:43;;;;;;;10.90;2.92;;;12.20;99.90;;;;;;5022072;28;20052;-92
2024/04/04 08:25:09;;;;;;;9.20;1.90;;;12.20;99.90;;;;;;5016977;28;20022;-86
2024/04/04 08:27:34;;;;;;;3.22;1.80;;;12.40;99.90;;;;;;5001116;28;20045;-90
2024/04/04 08:30:00;;;;;;;5.90;1.83;;;12.10;99.90;;;;;;5000144;28;20037;-89
2024/04/04 08:32:27;;;;;;;6.13;2.40;;;12.10;99.90;;;;;;5000577;28;20027;-89
2024/04/04 08:34:54;;;;;;;5.25;1.45;;;12.50;99.90;;;;;;4991166;28;20031;-89
2024/04/04 08:37:19;;;;;;;4.93;1.33;;;12.10;99.90;;;;;;4988271;28;20030;-88
2024/04/04 08:39:45;;;;;;;5.97;2.05;;;12.10;99.90;;;;;;4993677;28;20026;-88
2024/04/04 08:42:11;;;;;;;4.93;1.50;;;12.10;99.90;;;;;;4977736;28;20463;-88
2024/04/04 08:44:56;;;;;;;4.18;1.60;;;12.10;99.90;;;;;;4996130;28;20513;-88
2024/04/04 08:47:23;;;;;;;4.40;1.77;;;12.10;99.90;;;;;;4993185;28;20082;-90
2024/04/04 08:49:50;;;;;;;5.40;1.50;;;13.20;99.90;;;;;;5015749;28;20022;-91
2024/04/04 08:52:16;;;;;;;5.88;1.90;;;12.10;99.90;;;;;;5002918;28;20026;-86
2024/04/04 08:54:42;;;;;;;5.60;2.40;;;12.10;99.90;;;;;;4984156;28;20027;-90
2024/04/04 08:57:08;;;;;;;4.90;1.98;;;12.10;99.90;;;;;;4974535;28;20026;-86
2024/04/04 08:59:34;;;;;;;5.53;1.67;;;12.00;99.90;;;;;;4989942;28;20076;-86
2024/04/04 09:02:00;;;;;;;3.25;1.48;;;12.90;99.90;;;;;;4995844;28;20027;-89
2024/04/04 09:04:28;;;;;;;11.15;1.50;;;11.90;99.90;;;;;;5019656;28;20081;-87
2024/04/04 09:06:54;;;;;;;7.55;1.33;;;12.30;99.90;;;;;;5016814;28;20386;-91
2024/04/04 09:09:21;;;;;;;3.90;1.63;;;11.90;99.90;;;;;;5012737;28;20034;-91
2024/04/04 09:11:47;;;;;;;6.82;2.00;;;11.90;99.90;;;;;;4994719;28;20606;-90
2024/04/04 09:14:15;;;;;;;2.70;1.15;;;11.80;99.90;;;;;;4992578;28;20026;-89
2024/04/04 09:16:41;;;;;;;7.47;1.55;;;11.80;99.90;;;;;;4986659;28;20061;-89
2024/04/04 09:19:10;;;;;;;8.75;2.20;;;11.90;99.90;;;;;;4996448;28;20026;-90
2024/04/04 09:21:37;;;;;;;7.07;2.10;;;11.80;99.90;;;;;;4994173;28;20046;-91
2024/04/04 09:24:08;;;;;;;7.38;2.30;;;11.90;99.90;;;;;;4992828;28;20022;-86
2024/04/04 09:26:35;;;;;;;8.85;2.55;;;12.00;99.90;;;;;;5009512;28;20033;-91
2024/04/04 09:29:03;;;;;;;7.97;2.35;;;12.80;99.90;;;;;;5014000;28;20049;-89
2024/04/04 09:31:32;;;;;;;7.57;2.08;;;12.10;99.90;;;;;;5014832;28;20418;-90
2024/04/04 09:34:00;;;;;;;4.05;1.92;;;12.30;99.90;;;;;;5012030;28;20076;-91
2024/04/04 09:36:27;;;;;;;10.30;2.92;;;12.70;99.90;;;;;;4993913;28;20422;-91
2024/04/04 09:38:53;;;;;;;6.00;1.63;;;13.30;99.90;;;;;;4993979;28;20026;-91
2024/04/04 09:41:20;;;;;;;4.20;1.75;;;12.50;99.90;;;;;;4992749;28;20395;-91
2024/04/04 09:43:58;;;;;;;8.30;2.10;;;12.70;99.90;;;;;;4985183;28;20030;-91
2024/04/04 09:46:34;;;;;;;6.28;2.00;;;12.70;99.90;;;;;;4994699;28;20113;-91
2024/04/04 09:49:02;;;;;;;7.80;1.92;;;12.60;99.90;;;;;;4995119;28;20026;-91
2024/04/04 09:51:29;;;;;;;14.98;2.20;;;13.30;99.90;;;;;;4994533;28;20026;-90
2024/04/04 09:53:57;;;;;;;5.18;1.20;;;12.60;99.90;;;;;;4997070;28;20101;-90
2024/04/04 09:56:24;;;;;;;9.05;1.63;;;12.50;99.90;;;;;;5000202;28;20045;-88
2024/04/04 09:58:50;;;;;;;5.75;1.27;;;12.90;99.90;;;;;;5029089;23;20058;-89
2024/04/04 10:01:24;;;;;;;7.45;1.90;;;12.70;99.90;;;;;;4994372;28;20054;-90
2024/04/04 10:03:52;;;;;;;5.20;1.08;;;12.70;99.90;;;;;;4994325;28;20025;-90
2024/04/04 10:06:27;;;;;;;3.97;1.08;;;12.80;99.90;;;;;;4994489;28;20030;-90
2024/04/04 10:08:52;;;;;;;2.58;1.25;;;12.90;99.90;;;;;;5013228;28;20018;-90
2024/04/04 10:11:33;;;;;;;4.25;1.20;;;13.00;99.90;;;;;;4998191;28;20018;-90
2024/04/04 10:14:02;;;;;;;5.68;0.82;;;13.00;99.90;;;;;;4995288;28;20102;-90
2024/04/04 10:16:35;;;;;;;7.53;1.90;;;13.10;99.90;;;;;;4997994;28;20038;-91
2024/04/04 10:19:13;;;;;;;3.95;0.98;;;13.10;99.90;;;;;;4981786;28;20038;-87
2024/04/04 10:21:39;;;;;;;3.10;1.05;;;13.10;99.90;;;;;;4982435;28;20105;-91
2024/04/04 10:24:07;;;;;;;5.40;0.93;;;13.20;99.90;;;;;;4981496;28;20030;-89
2024/04/04 10:26:34;;;;;;;9.52;1.40;;;13.30;99.90;;;;;;4990645;28;20039;-90
2024/04/04 10:29:00;;;;;;;5.43;1.55;;;13.30;99.90;;;;;;4980347;28;20029;-90
2024/04/04 10:31:26;;;;;;;6.90;1.50;;;13.30;99.90;;;;;;4982121;28;20110;-90
2024/04/04 10:34:02;;;;;;;6.65;1.50;;;13.30;99.90;;;;;;4984880;28;20507;-92
2024/04/04 10:36:48;;;;;;;8.00;2.38;;;13.30;99.90;;;;;;4978755;28;20039;-92
2024/04/04 10:39:18;;;;;;;8.80;2.17;;;13.40;99.90;;;;;;4977693;28;20031;-89
2024/04/04 10:41:51;;;;;;;7.47;2.10;;;13.40;99.90;;;;;;4995368;28;20038;-92
2024/04/04 10:44:21;;;;;;;14.05;2.28;;;13.40;99.90;;;;;;4998463;28;20041;-91
2024/04/04 10:46:49;;;;;;;4.00;1.90;;;13.50;99.90;;;;;;4997839;28;20030;-90
2024/04/04 10:49:17;;;;;;;12.55;2.03;;;13.50;99.90;;;;;;5010562;28;20030;-90
2024/04/04 10:51:49;;;;;;;10.88;2.33;;;13.50;99.90;;;;;;5029975;28;20030;-90
2024/04/04 10:54:17;;;;;;;14.25;2.47;;;14.10;99.90;;;;;;5017333;28;20381;-89
2024/04/04 10:56:42;;;;;;;11.02;2.50;;;13.60;99.90;;;;;;5016820;28;20060;-91
2024/04/04 10:59:09;;;;;;;10.57;2.60;;;14.10;99.90;;;;;;5017093;28;20069;-92
2024/04/04 11:01:35;;;;;;;8.77;2.50;;;13.60;99.90;;;;;;5016889;28;20026;-89
2024/04/04 11:04:00;;;;;;;15.82;3.42;;;13.70;99.90;;;;;;5008059;28;20034;-87
2024/04/04 11:06:27;;;;;;;11.65;2.30;;;13.70;99.90;;;;;;4989406;28;20034;-87
2024/04/04 11:08:54;;;;;;;14.25;3.08;;;13.70;99.90;;;;;;4990624;28;20023;-91
2024/04/04 11:11:21;;;;;;;15.65;2.33;;;13.70;99.90;;;;;;4991365;28;20146;-90
2024/04/04 11:13:51;;;;;;;20.30;2.88;;;13.70;99.90;;;;;;4995005;28;20030;-91
2024/04/04 11:16:18;;;;;;;16.23;3.50;;;14.50;99.90;;;;;;4997150;28;20030;-91
2024/04/04 11:18:44;;;;;;;17.67;3.05;;;13.70;99.90;;;;;;4996876;28;20274;-90
2024/04/04 11:21:10;;;;;;;13.38;2.95;;;13.60;99.90;;;;;;4997026;28;20459;-91
2024/04/04 11:23:36;;;;;;;23.65;3.10;;;13.60;99.90;;;;;;4996272;28;20033;-90
2024/04/04 11:26:02;;;;;;;20.33;2.95;;;13.60;99.90;;;;;;4995784;28;20026;-90
2024/04/04 11:28:27;;;;;;;16.35;2.97;;;13.60;99.90;;;;;;5012196;28;20497;-90
2024/04/04 11:30:54;;;;;;;19.33;3.13;;;13.60;99.90;;;;;;4999327;28;20505;-91
2024/04/04 11:33:20;;;;;;;20.40;3.22;;;13.70;99.90;;;;;;4996980;28;20018;-89
2024/04/04 11:35:46;;;;;;;19.25;3.10;;;13.70;99.90;;;;;;4996250;28;20463;-91
2024/04/04 11:38:11;;;;;;;27.10;4.25;;;13.80;99.90;;;;;;4996558;28;20106;-91
2024/04/04 11:40:37;;;;;;;21.33;4.25;;;13.90;99.90;;;;;;5000663;28;20038;-91
2024/04/04 11:43:04;;;;;;;16.23;3.40;;;13.90;99.90;;;;;;5020369;28;20026;-90
2024/04/04 11:45:30;;;;;;;18.17;3.80;;;13.80;99.90;;;;;;5031362;28;20065;-90
2024/04/04 11:47:56;;;;;;;23.63;4.35;;;13.70;99.90;;;;;;5004382;28;20035;-91
2024/04/04 11:50:22;;;;;;;21.60;4.30;;;14.40;99.90;;;;;;4995974;28;20054;-91
2024/04/04 11:52:47;;;;;;;23.20;4.45;;;13.50;99.90;;;;;;4996194;28;20022;-90
2024/04/04 11:55:13;;;;;;;21.08;3.30;;;13.40;99.90;;;;;;4995303;28;20042;-91
2024/04/04 11:57:39;;;;;;;33.20;5.07;;;13.40;99.90;;;;;;4995722;28;20084;-90
2024/04/04 12:00:10;;;;;;;30.10;6.63;;;13.40;99.90;;;;;;4996068;28;20035;-91
2024/04/04 12:02:36;;;;;;;24.63;5.20;;;13.50;99.90;;;;;;4996227;28;20486;-90
2024/04/04 12:05:02;;;;;;;27.25;5.15;;;13.50;99.90;;;;;;4995039;28;20050;-91
2024/04/04 12:07:29;;;;;;;25.25;4.57;;;13.40;99.90;;;;;;4996693;28;20076;-90
2024/04/04 12:09:54;;;;;;;21.17;3.85;;;13.40;99.90;;;;;;4979816;28;20117;-91
2024/04/04 12:12:21;;;;;;;30.10;4.93;;;13.40;99.90;;;;;;4993957;28;20089;-90
2024/04/04 12:14:47;;;;;;;37.28;5.30;;;14.30;99.90;;;;;;4993745;28;20478;-92
2024/04/04 12:17:19;;;;;;;26.83;5.40;;;13.40;99.90;;;;;;4994881;28;20029;-90
2024/04/04 12:19:45;;;;;;;29.58;4.78;;;13.50;99.90;;;;;;4994697;28;20109;-91
2024/04/04 12:22:12;;;;;;;21.23;4.72;;;13.50;99.90;;;;;;4994592;28;20085;-90
2024/04/04 12:24:45;;;;;;;23.95;4.82;;;13.50;99.90;;;;;;4994482;28;20109;-89
2024/04/04 12:27:11;;;;;;;27.65;4.55;;;13.50;99.90;;;;;;4991713;28;20034;-92
2024/04/04 12:29:36;;;;;;;24.10;4.22;;;13.50;99.90;;;;;;4994281;28;20121;-92
2024/04/04 12:32:03;;;;;;;31.83;5.85;;;13.50;99.90;;;;;;4994670;28;20023;-91
2024/04/04 12:34:28;;;;;;;29.17;5.38;;;13.50;99.90;;;;;;4992657;28;20041;-89
2024/04/04 12:36:54;;;;;;;31.25;5.20;;;13.50;99.90;;;;;;5000433;28;20035;-90
2024/04/04 12:39:21;;;;;;;24.52;4.80;;;13.60;99.90;;;;;;5001671;28;20054;-91
2024/04/04 12:41:48;;;;;;;40.70;6.07;;;13.90;99.90;;;;;;4995102;28;20077;-87
2024/04/04 12:44:14;;;;;;;37.10;6.57;;;14.70;99.90;;;;;;4992005;28;20505;-88